Time;durP1;ratioP1;P1;durP2;ratioP2;P2;SDS_P1;SDS_P2;PMS_P1;PMS_P2;Temp;Humidity;BMP_temperature;BMP_pressure;BME280_temperature;BME280_humidity;BME280_pressure;Samples;Min_cycle;Max_cycle;Signal;HPM_P1;HPM_P2
2021/06/24 00:01:16;;;;;;;1.17;0.77;;;;;;;;;;5026051;28;20029;-78
2021/06/24 00:03:42;;;;;;;0.57;0.57;;;;;;;;;;5008931;28;20022;-76
2021/06/24 00:06:08;;;;;;;2.40;0.88;;;;;;;;;;5008814;28;20026;-76
2021/06/24 00:08:35;;;;;;;0.98;0.77;;;;;;;;;;5008136;28;20037;-78
2021/06/24 00:11:01;;;;;;;1.25;0.90;;;;;;;;;;5026536;28;20033;-76
2021/06/24 00:13:28;;;;;;;1.10;1.00;;;;;;;;;;5037551;22;20052;-81
2021/06/24 00:15:54;;;;;;;1.27;0.93;;;;;;;;;;5033046;28;20041;-80
2021/06/24 00:18:21;;;;;;;1.85;1.20;;;;;;;;;;5043376;28;20098;-80
2021/06/24 00:20:47;;;;;;;1.92;1.20;;;;;;;;;;5030601;28;20040;-81
2021/06/24 00:23:14;;;;;;;2.55;1.00;;;;;;;;;;5049444;28;20026;-81
2021/06/24 00:25:41;;;;;;;1.63;1.13;;;;;;;;;;5047087;28;20025;-81
2021/06/24 00:28:07;;;;;;;1.63;1.33;;;;;;;;;;5025184;28;20108;-81
2021/06/24 00:30:37;;;;;;;3.80;1.20;;;;;;;;;;5022458;28;20029;-81
2021/06/24 00:33:03;;;;;;;1.02;1.02;;;;;;;;;;5021392;28;20030;-81
2021/06/24 00:35:29;;;;;;;1.23;1.00;;;;;;;;;;5004312;28;20026;-81
2021/06/24 00:37:55;;;;;;;1.35;1.00;;;;;;;;;;5018373;28;20025;-81
2021/06/24 00:40:22;;;;;;;2.58;1.10;;;;;;;;;;5043164;28;20085;-81
2021/06/24 00:42:48;;;;;;;1.58;1.48;;;;;;;;;;5041676;28;20033;-80
2021/06/24 00:45:15;;;;;;;2.30;1.85;;;;;;;;;;5026820;28;20025;-81
2021/06/24 00:47:42;;;;;;;1.98;1.80;;;;;;;;;;5029904;28;20072;-81
2021/06/24 00:50:09;;;;;;;1.52;1.42;;;;;;;;;;5043823;28;20093;-81
2021/06/24 00:52:35;;;;;;;1.50;1.40;;;;;;;;;;5024900;28;20035;-81
2021/06/24 00:55:08;;;;;;;1.85;1.75;;;;;;;;;;5077424;28;20386;-81
2021/06/24 00:57:34;;;;;;;1.55;1.40;;;;;;;;;;5076777;28;20043;-80
2021/06/24 01:00:00;;;;;;;2.30;1.80;;;;;;;;;;5085360;28;20062;-79
2021/06/24 01:02:26;;;;;;;1.48;1.38;;;;;;;;;;5088831;28;20013;-80
2021/06/24 01:04:52;;;;;;;2.78;2.17;;;;;;;;;;5088324;28;20504;-81
2021/06/24 01:07:18;;;;;;;1.88;1.77;;;;;;;;;;5079027;28;20410;-81
2021/06/24 01:09:45;;;;;;;1.75;1.65;;;;;;;;;;5076452;28;20028;-81
2021/06/24 01:12:11;;;;;;;3.20;2.40;;;;;;;;;;5076770;28;20048;-81
2021/06/24 01:14:37;;;;;;;2.05;1.95;;;;;;;;;;5081859;28;20036;-81
2021/06/24 01:17:04;;;;;;;2.83;2.05;;;;;;;;;;5103666;28;20028;-80
2021/06/24 01:19:30;;;;;;;3.08;1.80;;;;;;;;;;5087497;28;20048;-80
2021/06/24 01:21:58;;;;;;;3.97;1.65;;;;;;;;;;5064490;28;20184;-80
2021/06/24 01:24:25;;;;;;;3.38;1.80;;;;;;;;;;5056118;28;20029;-81
2021/06/24 01:26:51;;;;;;;2.95;1.80;;;;;;;;;;5056425;28;20044;-81
2021/06/24 01:29:17;;;;;;;2.65;1.30;;;;;;;;;;5057341;28;20547;-81
2021/06/24 01:31:43;;;;;;;1.50;1.40;;;;;;;;;;5057466;28;20096;-81
2021/06/24 01:34:13;;;;;;;1.88;1.60;;;;;;;;;;5055041;28;20320;-81
2021/06/24 01:36:40;;;;;;;1.67;1.40;;;;;;;;;;5055685;28;20021;-81
2021/06/24 01:39:08;;;;;;;1.30;1.20;;;;;;;;;;5055849;28;20434;-81
2021/06/24 01:41:34;;;;;;;3.05;1.40;;;;;;;;;;5056269;28;20051;-81
2021/06/24 01:44:00;;;;;;;3.33;2.00;;;;;;;;;;5072740;28;20038;-81
2021/06/24 01:46:26;;;;;;;2.95;1.55;;;;;;;;;;5089299;28;20028;-81
2021/06/24 01:48:52;;;;;;;1.10;1.05;;;;;;;;;;5084258;28;20043;-81
2021/06/24 01:51:19;;;;;;;1.20;1.10;;;;;;;;;;5075979;28;20432;-81
2021/06/24 01:53:45;;;;;;;2.75;1.00;;;;;;;;;;5074127;28;20412;-81
2021/06/24 01:56:11;;;;;;;2.92;1.40;;;;;;;;;;5075925;28;20033;-81
2021/06/24 01:58:37;;;;;;;1.30;1.08;;;;;;;;;;5076425;28;20048;-81
2021/06/24 02:01:06;;;;;;;1.85;1.23;;;;;;;;;;5075519;28;20048;-81
2021/06/24 02:03:37;;;;;;;1.20;1.10;;;;;;;;;;5077286;28;20063;-81
2021/06/24 02:06:03;;;;;;;1.13;1.02;;;;;;;;;;5070980;28;20032;-81
2021/06/24 02:08:31;;;;;;;1.10;0.90;;;;;;;;;;5065724;28;20442;-81
2021/06/24 02:10:58;;;;;;;1.15;1.13;;;;;;;;;;5047319;28;20028;-81
2021/06/24 02:13:24;;;;;;;1.17;1.08;;;;;;;;;;5055106;28;20055;-81
2021/06/24 02:15:51;;;;;;;0.75;0.75;;;;;;;;;;5075357;28;20426;-81
2021/06/24 02:18:17;;;;;;;0.70;0.70;;;;;;;;;;5094210;28;20024;-81
2021/06/24 02:20:43;;;;;;;1.10;0.98;;;;;;;;;;5059087;28;20097;-81
2021/06/24 02:23:09;;;;;;;1.05;1.00;;;;;;;;;;5065273;28;20043;-81
2021/06/24 02:25:36;;;;;;;1.10;1.10;;;;;;;;;;5072016;28;20029;-81
2021/06/24 02:28:02;;;;;;;1.40;1.30;;;;;;;;;;5072837;28;20167;-81
2021/06/24 02:30:28;;;;;;;0.93;0.80;;;;;;;;;;5060508;28;20025;-81
2021/06/24 02:32:54;;;;;;;1.45;1.08;;;;;;;;;;5044990;28;20060;-81
2021/06/24 02:35:21;;;;;;;1.33;1.05;;;;;;;;;;5040904;28;20029;-81
2021/06/24 02:37:48;;;;;;;1.25;1.00;;;;;;;;;;5042625;28;20029;-81
2021/06/24 02:40:15;;;;;;;0.85;0.85;;;;;;;;;;5049070;28;20021;-81
2021/06/24 02:42:41;;;;;;;0.93;0.93;;;;;;;;;;5057100;28;20393;-81
2021/06/24 02:45:08;;;;;;;1.63;0.90;;;;;;;;;;5068595;28;20036;-81
2021/06/24 02:47:34;;;;;;;1.00;1.00;;;;;;;;;;5080647;28;20032;-80
2021/06/24 02:50:00;;;;;;;1.15;0.90;;;;;;;;;;5078148;28;20033;-81
2021/06/24 02:52:26;;;;;;;1.25;0.80;;;;;;;;;;5061775;28;20112;-81
2021/06/24 02:54:53;;;;;;;0.80;0.80;;;;;;;;;;5061833;28;20082;-81
2021/06/24 02:57:20;;;;;;;1.17;0.88;;;;;;;;;;5069195;28;20021;-81
2021/06/24 02:59:46;;;;;;;0.90;0.90;;;;;;;;;;5068241;28;20021;-82
2021/06/24 03:02:13;;;;;;;0.93;0.70;;;;;;;;;;5043405;28;20482;-81
2021/06/24 03:04:45;;;;;;;0.70;0.70;;;;;;;;;;5039956;28;20033;-81
2021/06/24 03:07:11;;;;;;;1.00;0.70;;;;;;;;;;5041305;28;20040;-81
2021/06/24 03:09:38;;;;;;;0.50;0.50;;;;;;;;;;5045766;28;20041;-81
2021/06/24 03:12:04;;;;;;;0.95;0.60;;;;;;;;;;5055869;28;20017;-81
2021/06/24 03:14:30;;;;;;;0.98;0.80;;;;;;;;;;5067965;28;20037;-81
2021/06/24 03:16:56;;;;;;;0.70;0.70;;;;;;;;;;5084587;28;20028;-81
2021/06/24 03:19:22;;;;;;;1.05;0.63;;;;;;;;;;5091297;28;20040;-81
2021/06/24 03:21:49;;;;;;;0.60;0.60;;;;;;;;;;5078374;28;20036;-81
2021/06/24 03:24:18;;;;;;;0.70;0.70;;;;;;;;;;5058014;28;20085;-80
2021/06/24 03:26:44;;;;;;;1.10;0.90;;;;;;;;;;5073986;28;20043;-81
2021/06/24 03:29:10;;;;;;;1.25;0.75;;;;;;;;;;5055902;28;20025;-79
2021/06/24 03:31:38;;;;;;;1.15;1.15;;;;;;;;;;5058949;28;20048;-82
2021/06/24 03:34:04;;;;;;;1.00;0.90;;;;;;;;;;5059777;28;20032;-82
2021/06/24 03:36:30;;;;;;;0.65;0.65;;;;;;;;;;5060926;28;20048;-81
2021/06/24 03:38:57;;;;;;;1.02;1.02;;;;;;;;;;5060666;28;20025;-82
2021/06/24 03:41:24;;;;;;;0.90;0.90;;;;;;;;;;5062723;28;20057;-82
2021/06/24 03:43:50;;;;;;;1.00;0.93;;;;;;;;;;5061906;28;20038;-82
2021/06/24 03:46:16;;;;;;;0.70;0.70;;;;;;;;;;5073131;28;20040;-83
2021/06/24 03:48:42;;;;;;;0.70;0.70;;;;;;;;;;5085535;28;20035;-83
2021/06/24 03:51:08;;;;;;;0.77;0.73;;;;;;;;;;5087284;28;20028;-81
2021/06/24 03:53:35;;;;;;;0.75;0.75;;;;;;;;;;5069643;28;20131;-82
2021/06/24 03:56:01;;;;;;;0.70;0.60;;;;;;;;;;5065634;28;20040;-81
2021/06/24 03:58:27;;;;;;;0.70;0.65;;;;;;;;;;5065447;28;20074;-82
2021/06/24 04:00:54;;;;;;;0.70;0.65;;;;;;;;;;5065017;28;20032;-81
2021/06/24 04:03:20;;;;;;;0.70;0.70;;;;;;;;;;5057265;28;20029;-80
2021/06/24 04:05:46;;;;;;;0.80;0.80;;;;;;;;;;5049367;28;20025;-81
2021/06/24 04:08:12;;;;;;;0.75;0.63;;;;;;;;;;5047558;28;20030;-80
2021/06/24 04:10:38;;;;;;;0.70;0.70;;;;;;;;;;5046706;28;20494;-80
2021/06/24 04:13:05;;;;;;;1.80;0.77;;;;;;;;;;5056639;28;20041;-80
2021/06/24 04:15:32;;;;;;;0.80;0.80;;;;;;;;;;5085737;28;20032;-80
2021/06/24 04:18:00;;;;;;;0.70;0.70;;;;;;;;;;5087094;28;20040;-80
2021/06/24 04:20:26;;;;;;;0.90;0.90;;;;;;;;;;5087882;28;20047;-80
2021/06/24 04:22:52;;;;;;;1.35;0.77;;;;;;;;;;5081315;28;20029;-80
2021/06/24 04:25:22;;;;;;;0.70;0.70;;;;;;;;;;5043045;28;20076;-81
2021/06/24 04:27:48;;;;;;;1.30;1.20;;;;;;;;;;5064997;28;20048;-80
2021/06/24 04:30:14;;;;;;;1.70;0.70;;;;;;;;;;5075096;28;20032;-79
2021/06/24 04:32:41;;;;;;;1.25;1.00;;;;;;;;;;5072895;28;20029;-81
2021/06/24 04:35:22;;;;;;;0.85;0.70;;;;;;;;;;5051086;28;20033;-81
2021/06/24 04:37:48;;;;;;;0.70;0.70;;;;;;;;;;5048463;28;20021;-81
2021/06/24 04:40:15;;;;;;;0.60;0.60;;;;;;;;;;5051353;28;20028;-83
2021/06/24 04:42:41;;;;;;;0.60;0.60;;;;;;;;;;5047997;28;20043;-84
2021/06/24 04:45:08;;;;;;;0.93;0.52;;;;;;;;;;5067600;28;20032;-85
2021/06/24 04:54:08;;;;;;;0.60;0.60;;;;;;;;;;5017319;28;20075;-83
2021/06/24 04:59:57;;;;;;;0.98;0.57;;;;;;;;;;5004010;28;20481;-83
2021/06/24 05:08:55;;;;;;;0.60;0.60;;;;;;;;;;5060646;28;20059;-84
2021/06/24 05:18:18;;;;;;;0.55;0.55;;;;;;;;;;4956608;28;20579;-84
2021/06/24 05:21:11;;;;;;;1.05;0.73;;;;;;;;;;4968244;28;20089;-84
2021/06/24 05:30:23;;;;;;;0.73;0.73;;;;;;;;;;4989407;28;20042;-84
2021/06/24 05:38:16;;;;;;;0.40;0.40;;;;;;;;;;5045850;28;20092;-84
2021/06/24 06:01:22;;;;;;;;;;;;;;;;;;;;;
2021/06/24 06:03:48;;;;;;;0.50;0.50;;;;;;;;;;5006775;28;20087;-83
2021/06/24 06:06:51;;;;;;;0.52;0.50;;;;;;;;;;5007364;28;20026;-84
2021/06/24 06:09:36;;;;;;;;;;;;;;;;;;;;;
2021/06/24 06:12:05;;;;;;;0.57;0.57;;;;;;;;;;4985332;28;20117;-84
2021/06/24 06:14:31;;;;;;;1.75;0.47;;;;;;;;;;5061085;22;20087;-80
2021/06/24 06:16:57;;;;;;;0.85;0.70;;;;;;;;;;5009796;28;20097;-79
2021/06/24 06:19:23;;;;;;;0.75;0.75;;;;;;;;;;5006945;28;20034;-79
2021/06/24 06:21:49;;;;;;;1.85;0.77;;;;;;;;;;5025217;28;20426;-80
2021/06/24 06:24:15;;;;;;;0.82;0.73;;;;;;;;;;5025543;28;20033;-80
2021/06/24 06:26:41;;;;;;;0.70;0.70;;;;;;;;;;5024595;28;20022;-80
2021/06/24 06:29:07;;;;;;;0.55;0.55;;;;;;;;;;5024583;28;20025;-79
2021/06/24 06:31:39;;;;;;;0.80;0.80;;;;;;;;;;5025343;28;20032;-79
2021/06/24 06:34:06;;;;;;;0.70;0.70;;;;;;;;;;5008624;28;20541;-80
2021/06/24 06:36:32;;;;;;;0.80;0.80;;;;;;;;;;5026086;28;20486;-80
2021/06/24 06:38:58;;;;;;;1.10;1.00;;;;;;;;;;5025087;28;20026;-79
2021/06/24 06:41:24;;;;;;;0.75;0.70;;;;;;;;;;5030395;28;20029;-80
2021/06/24 06:43:50;;;;;;;0.75;0.75;;;;;;;;;;5044913;28;20025;-82
2021/06/24 06:46:16;;;;;;;0.95;0.70;;;;;;;;;;5038214;28;20033;-80
2021/06/24 06:48:42;;;;;;;1.10;0.90;;;;;;;;;;5044066;28;20519;-80
2021/06/24 06:51:09;;;;;;;0.90;0.85;;;;;;;;;;5032654;28;20089;-80
2021/06/24 06:53:36;;;;;;;0.88;0.88;;;;;;;;;;5016917;28;20057;-80
2021/06/24 06:56:02;;;;;;;2.08;1.27;;;;;;;;;;5034201;28;20083;-81
2021/06/24 06:58:28;;;;;;;2.25;1.17;;;;;;;;;;5034282;28;20033;-79
2021/06/24 07:00:54;;;;;;;0.70;0.70;;;;;;;;;;5018105;28;20438;-80
2021/06/24 07:03:20;;;;;;;1.15;1.02;;;;;;;;;;5018521;28;20034;-80
2021/06/24 07:05:46;;;;;;;1.27;1.02;;;;;;;;;;5036503;28;20082;-80
2021/06/24 07:08:12;;;;;;;1.35;1.00;;;;;;;;;;5035152;28;20041;-80
2021/06/24 07:10:38;;;;;;;1.15;0.88;;;;;;;;;;5016328;28;20164;-80
2021/06/24 07:13:04;;;;;;;1.10;1.00;;;;;;;;;;5036853;28;20025;-79
2021/06/24 07:15:31;;;;;;;0.80;0.80;;;;;;;;;;5040986;28;20018;-80
2021/06/24 07:17:57;;;;;;;1.02;0.93;;;;;;;;;;5017862;28;20022;-80
2021/06/24 07:20:23;;;;;;;1.30;1.20;;;;;;;;;;5036386;28;20102;-79
2021/06/24 07:22:49;;;;;;;1.75;0.80;;;;;;;;;;5036673;28;20022;-79
2021/06/24 07:25:18;;;;;;;1.65;0.60;;;;;;;;;;5035132;28;20030;-79
2021/06/24 07:27:45;;;;;;;0.80;0.80;;;;;;;;;;5034691;28;19998;-80
2021/06/24 07:30:11;;;;;;;0.63;0.57;;;;;;;;;;5034083;28;20032;-81
2021/06/24 07:32:37;;;;;;;0.80;0.80;;;;;;;;;;5018123;28;20022;-81
2021/06/24 07:35:05;;;;;;;1.80;0.73;;;;;;;;;;5016533;28;20052;-82
2021/06/24 07:37:31;;;;;;;0.75;0.75;;;;;;;;;;5026747;28;20278;-83
2021/06/24 07:39:57;;;;;;;1.27;0.80;;;;;;;;;;5008368;28;20030;-82
2021/06/24 07:42:23;;;;;;;1.80;1.00;;;;;;;;;;5034199;28;20026;-81
2021/06/24 07:44:49;;;;;;;1.40;1.10;;;;;;;;;;5032929;28;20096;-81
2021/06/24 07:47:18;;;;;;;1.10;1.00;;;;;;;;;;5044858;28;20029;-81
2021/06/24 07:49:45;;;;;;;1.42;0.85;;;;;;;;;;5042419;28;20104;-81
2021/06/24 07:52:11;;;;;;;2.72;1.65;;;;;;;;;;5004322;28;20026;-82
2021/06/24 07:54:37;;;;;;;2.58;1.42;;;;;;;;;;5023365;28;20064;-80
2021/06/24 07:57:03;;;;;;;1.25;1.15;;;;;;;;;;5005375;28;20022;-82
2021/06/24 07:59:29;;;;;;;1.38;0.93;;;;;;;;;;5022871;28;20287;-82
2021/06/24 08:01:55;;;;;;;1.42;0.80;;;;;;;;;;5024147;28;20088;-81
2021/06/24 08:04:21;;;;;;;1.17;0.88;;;;;;;;;;5022841;28;20049;-82
2021/06/24 08:06:47;;;;;;;0.93;0.80;;;;;;;;;;5023511;28;20052;-82
2021/06/24 08:09:14;;;;;;;0.68;0.68;;;;;;;;;;5005134;28;20041;-81
2021/06/24 08:11:41;;;;;;;0.82;0.80;;;;;;;;;;5022558;28;20037;-81
2021/06/24 08:14:07;;;;;;;1.45;0.80;;;;;;;;;;5019425;28;20030;-81
2021/06/24 08:16:35;;;;;;;0.68;0.68;;;;;;;;;;5030738;28;20022;-81
2021/06/24 08:19:01;;;;;;;0.60;0.60;;;;;;;;;;5024315;28;20022;-81
2021/06/24 08:21:27;;;;;;;0.70;0.70;;;;;;;;;;5024197;28;20072;-81
2021/06/24 08:23:53;;;;;;;1.40;1.00;;;;;;;;;;5031827;28;20018;-79
2021/06/24 08:26:20;;;;;;;0.85;0.85;;;;;;;;;;5010440;28;20029;-81
2021/06/24 08:28:46;;;;;;;0.80;0.70;;;;;;;;;;5021588;28;20022;-82
2021/06/24 08:31:12;;;;;;;0.85;0.77;;;;;;;;;;5004199;28;20356;-81
2021/06/24 08:33:38;;;;;;;0.73;0.70;;;;;;;;;;5022468;28;20437;-81
2021/06/24 08:36:05;;;;;;;0.73;0.73;;;;;;;;;;5024904;28;20033;-81
2021/06/24 08:38:31;;;;;;;0.60;0.60;;;;;;;;;;5028262;28;20026;-80
2021/06/24 08:40:57;;;;;;;1.20;1.05;;;;;;;;;;5030495;28;20054;-80
2021/06/24 08:43:23;;;;;;;0.70;0.70;;;;;;;;;;5032403;28;20029;-81
2021/06/24 08:45:50;;;;;;;1.23;0.95;;;;;;;;;;5038731;28;20083;-81
2021/06/24 08:48:17;;;;;;;1.35;1.25;;;;;;;;;;5042044;28;20017;-81
2021/06/24 08:50:44;;;;;;;2.50;1.27;;;;;;;;;;5025633;28;20093;-80
2021/06/24 08:53:10;;;;;;;2.08;1.33;;;;;;;;;;5014634;28;20057;-81
2021/06/24 08:55:40;;;;;;;2.45;0.90;;;;;;;;;;5005893;28;20033;-81
2021/06/24 08:58:07;;;;;;;0.90;0.90;;;;;;;;;;5024311;28;20049;-81
2021/06/24 09:00:33;;;;;;;1.35;1.23;;;;;;;;;;5024278;28;20029;-81
2021/06/24 09:03:12;;;;;;;1.40;1.30;;;;;;;;;;5023832;28;20026;-82
2021/06/24 09:05:52;;;;;;;1.27;1.10;;;;;;;;;;5023330;28;20040;-82
2021/06/24 09:08:37;;;;;;;5.18;2.25;;;;;;;;;;5005538;28;20017;-79
2021/06/24 09:11:12;;;;;;;3.30;1.45;;;;;;;;;;5022744;28;20089;-80
2021/06/24 09:13:39;;;;;;;3.85;1.30;;;;;;;;;;5033391;28;20041;-81
2021/06/24 09:16:20;;;;;;;1.10;1.00;;;;;;;;;;5037250;28;20035;-82
2021/06/24 09:18:46;;;;;;;2.42;1.38;;;;;;;;;;5047963;28;20049;-81
2021/06/24 09:21:23;;;;;;;1.20;1.10;;;;;;;;;;5047951;28;20081;-81
2021/06/24 09:23:51;;;;;;;1.35;1.10;;;;;;;;;;5025261;28;20513;-81
2021/06/24 09:26:17;;;;;;;1.63;1.42;;;;;;;;;;5029452;28;20033;-82
2021/06/24 09:28:50;;;;;;;0.80;0.80;;;;;;;;;;5028630;28;20478;-82
2021/06/24 09:31:26;;;;;;;0.98;0.98;;;;;;;;;;5011215;28;20034;-80
2021/06/24 09:33:53;;;;;;;1.65;1.20;;;;;;;;;;5027945;28;20032;-81
2021/06/24 09:36:40;;;;;;;1.27;1.17;;;;;;;;;;5009591;28;20034;-81
2021/06/24 09:39:28;;;;;;;1.30;1.00;;;;;;;;;;5025150;28;20037;-83
2021/06/24 09:42:00;;;;;;;1.30;1.20;;;;;;;;;;5025801;28;20022;-82
2021/06/24 09:44:27;;;;;;;1.38;1.10;;;;;;;;;;5037890;28;20121;-83
2021/06/24 09:46:53;;;;;;;2.05;1.17;;;;;;;;;;5030005;28;20036;-82
2021/06/24 09:49:48;;;;;;;2.80;1.80;;;;;;;;;;5028582;28;20323;-82
2021/06/24 09:52:21;;;;;;;2.17;1.38;;;;;;;;;;5008450;28;20057;-83
2021/06/24 09:54:50;;;;;;;1.92;1.17;;;;;;;;;;5008999;28;20026;-82
2021/06/24 09:57:23;;;;;;;1.38;1.27;;;;;;;;;;5025643;28;20301;-83
2021/06/24 09:59:50;;;;;;;1.33;1.15;;;;;;;;;;5025815;28;20014;-83
2021/06/24 10:02:18;;;;;;;1.67;1.17;;;;;;;;;;5026178;28;20387;-83
2021/06/24 10:04:45;;;;;;;2.20;1.48;;;;;;;;;;5008605;28;20025;-83
2021/06/24 10:07:13;;;;;;;1.55;1.10;;;;;;;;;;5026466;28;20049;-83
2021/06/24 10:09:40;;;;;;;1.73;1.10;;;;;;;;;;5008257;28;20030;-82
2021/06/24 10:12:10;;;;;;;1.50;1.42;;;;;;;;;;5027852;28;20030;-82
2021/06/24 10:14:37;;;;;;;2.33;1.15;;;;;;;;;;5021530;28;20034;-82
2021/06/24 10:17:04;;;;;;;3.95;1.67;;;;;;;;;;5021315;28;20052;-81
2021/06/24 10:19:50;;;;;;;1.70;1.60;;;;;;;;;;5024787;28;20052;-81
2021/06/24 10:22:21;;;;;;;1.63;1.52;;;;;;;;;;5024876;28;20068;-83
2021/06/24 10:25:02;;;;;;;1.70;1.33;;;;;;;;;;5024224;28;20110;-81
2021/06/24 10:27:33;;;;;;;2.53;1.33;;;;;;;;;;5006346;28;20022;-81
2021/06/24 10:30:08;;;;;;;2.78;1.27;;;;;;;;;;5025111;28;20134;-82
2021/06/24 10:32:35;;;;;;;1.65;1.55;;;;;;;;;;5025724;28;20018;-79
2021/06/24 10:35:02;;;;;;;1.30;1.20;;;;;;;;;;5028549;28;20030;-80
2021/06/24 10:37:29;;;;;;;1.35;1.25;;;;;;;;;;5027070;28;20064;-80
2021/06/24 10:39:56;;;;;;;2.25;1.10;;;;;;;;;;5027114;28;20102;-80
2021/06/24 10:42:23;;;;;;;2.47;1.70;;;;;;;;;;5011606;28;20021;-82
2021/06/24 10:44:57;;;;;;;1.23;1.10;;;;;;;;;;5037293;28;20018;-83
2021/06/24 10:47:26;;;;;;;3.00;1.30;;;;;;;;;;5029246;28;20018;-80
2021/06/24 10:49:52;;;;;;;3.28;1.45;;;;;;;;;;5025446;28;20649;-81
2021/06/24 10:52:24;;;;;;;2.53;1.42;;;;;;;;;;5009280;28;20041;-80
2021/06/24 10:54:51;;;;;;;0.98;0.98;;;;;;;;;;5026650;28;20033;-80
2021/06/24 10:57:34;;;;;;;1.52;1.38;;;;;;;;;;5008494;28;20037;-83
2021/06/24 11:00:18;;;;;;;1.65;1.27;;;;;;;;;;5008378;28;20045;-83
2021/06/24 11:02:49;;;;;;;2.22;1.67;;;;;;;;;;5007866;28;20475;-81
2021/06/24 11:05:18;;;;;;;2.35;1.55;;;;;;;;;;5025208;28;20036;-82
2021/06/24 11:07:45;;;;;;;1.38;1.27;;;;;;;;;;5022575;28;20040;-82
2021/06/24 11:10:26;;;;;;;1.45;1.35;;;;;;;;;;5002601;28;20083;-79
2021/06/24 11:12:52;;;;;;;1.20;1.10;;;;;;;;;;5020027;28;20026;-80
2021/06/24 11:15:57;;;;;;;3.17;1.42;;;;;;;;;;5014008;28;20026;-80
2021/06/24 11:18:32;;;;;;;2.85;1.30;;;;;;;;;;4947382;28;20051;-81
2021/06/24 11:21:02;;;;;;;3.55;1.50;;;;;;;;;;4942005;29;20472;-81
2021/06/24 11:23:34;;;;;;;1.10;1.00;;;;;;;;;;4975940;28;20042;-81
2021/06/24 11:26:11;;;;;;;1.48;1.20;;;;;;;;;;5024990;28;20029;-82
2021/06/24 11:28:58;;;;;;;3.10;1.70;;;;;;;;;;5022055;28;20077;-84
2021/06/24 11:31:42;;;;;;;1.30;1.20;;;;;;;;;;5020151;28;20054;-81
2021/06/24 11:34:28;;;;;;;1.58;0.82;;;;;;;;;;5023715;28;20478;-80
2021/06/24 11:37:04;;;;;;;2.28;1.27;;;;;;;;;;5020051;28;20018;-80
2021/06/24 11:39:38;;;;;;;2.38;1.40;;;;;;;;;;5003704;28;20033;-81
2021/06/24 11:42:08;;;;;;;1.38;1.10;;;;;;;;;;5020291;28;20025;-80
2021/06/24 11:44:44;;;;;;;2.10;1.23;;;;;;;;;;5016253;28;20104;-81
2021/06/24 11:47:12;;;;;;;2.28;1.10;;;;;;;;;;5039753;28;20018;-80
2021/06/24 12:03:36;;;;;;;1.55;1.08;;;;;;;;;;5000712;28;20227;-79
2021/06/24 12:06:02;;;;;;;1.15;1.08;;;;;;;;;;4999060;28;20081;-81
2021/06/24 12:08:28;;;;;;;1.58;1.27;;;;;;;;;;4998761;28;20475;-81
2021/06/24 12:11:05;;;;;;;1.30;1.20;;;;;;;;;;5019741;28;20030;-80
2021/06/24 12:13:32;;;;;;;1.15;1.10;;;;;;;;;;5037555;23;20317;-80
2021/06/24 12:16:00;;;;;;;1.30;1.20;;;;;;;;;;4980998;28;20038;-81
2021/06/24 12:18:38;;;;;;;1.30;1.30;;;;;;;;;;5000578;28;20018;-81
2021/06/24 12:21:05;;;;;;;1.25;1.05;;;;;;;;;;4998204;28;20626;-81
2021/06/24 12:23:31;;;;;;;2.95;1.42;;;;;;;;;;5000075;28;20091;-82
2021/06/24 12:25:59;;;;;;;1.67;1.58;;;;;;;;;;5019796;28;20034;-80
2021/06/24 12:28:26;;;;;;;1.10;1.00;;;;;;;;;;5000711;28;20030;-81
2021/06/24 12:30:52;;;;;;;4.20;1.70;;;;;;;;;;5006200;28;20026;-80
2021/06/24 12:33:18;;;;;;;1.58;1.48;;;;;;;;;;5016782;28;20026;-79
2021/06/24 12:35:48;;;;;;;1.83;1.48;;;;;;;;;;5015016;28;20029;-78
2021/06/24 12:38:19;;;;;;;1.50;1.40;;;;;;;;;;5020402;28;20358;-83
2021/06/24 12:40:47;;;;;;;1.45;1.35;;;;;;;;;;5001368;28;20054;-79
2021/06/24 12:43:34;;;;;;;2.85;1.42;;;;;;;;;;5018281;28;20026;-80
2021/06/24 12:46:01;;;;;;;1.73;1.13;;;;;;;;;;5002335;28;20355;-81
2021/06/24 12:48:30;;;;;;;1.95;1.40;;;;;;;;;;5019235;28;20052;-81
2021/06/24 12:50:57;;;;;;;1.45;1.35;;;;;;;;;;5017672;28;20029;-81
2021/06/24 12:53:30;;;;;;;2.30;1.92;;;;;;;;;;5018486;28;20068;-82
2021/06/24 12:55:57;;;;;;;2.20;1.65;;;;;;;;;;5001371;28;20026;-81
2021/06/24 12:58:23;;;;;;;2.65;1.30;;;;;;;;;;5004944;28;20018;-82
2021/06/24 13:00:51;;;;;;;2.58;1.83;;;;;;;;;;5000942;28;20022;-82
2021/06/24 13:03:31;;;;;;;2.03;1.60;;;;;;;;;;4999763;28;20022;-82
2021/06/24 13:06:08;;;;;;;2.20;1.30;;;;;;;;;;5018233;28;20072;-82
2021/06/24 13:08:34;;;;;;;2.72;1.70;;;;;;;;;;5020842;28;20408;-81
2021/06/24 13:11:10;;;;;;;1.98;1.48;;;;;;;;;;5000838;28;20018;-79
2021/06/24 13:13:36;;;;;;;1.77;1.58;;;;;;;;;;5000959;28;20469;-81
2021/06/24 13:16:22;;;;;;;2.58;1.98;;;;;;;;;;5018996;28;20030;-81
2021/06/24 13:18:50;;;;;;;1.70;1.60;;;;;;;;;;5036117;28;20482;-80
2021/06/24 13:21:16;;;;;;;1.92;1.70;;;;;;;;;;5019808;28;20022;-81
2021/06/24 13:23:42;;;;;;;1.50;1.40;;;;;;;;;;5039488;28;20115;-79
2021/06/24 13:26:12;;;;;;;1.70;1.48;;;;;;;;;;5022336;28;20033;-79
2021/06/24 13:28:39;;;;;;;1.52;1.42;;;;;;;;;;5000629;28;20037;-80
2021/06/24 13:31:06;;;;;;;2.50;1.38;;;;;;;;;;5020027;28;20096;-81
2021/06/24 13:33:45;;;;;;;3.10;1.70;;;;;;;;;;5017819;28;20069;-81
2021/06/24 13:36:18;;;;;;;1.75;1.65;;;;;;;;;;5018008;28;20022;-81
2021/06/24 13:38:52;;;;;;;1.35;1.35;;;;;;;;;;5000993;28;20022;-82
2021/06/24 13:41:29;;;;;;;1.75;1.60;;;;;;;;;;5002302;28;20026;-82
2021/06/24 13:44:02;;;;;;;1.13;1.13;;;;;;;;;;5020058;28;20425;-82
2021/06/24 13:46:29;;;;;;;1.92;1.70;;;;;;;;;;5014996;28;20110;-81
2021/06/24 13:48:55;;;;;;;2.05;1.40;;;;;;;;;;5001878;28;20089;-82
2021/06/24 13:51:21;;;;;;;1.95;1.55;;;;;;;;;;5017234;28;20026;-82
2021/06/24 13:53:47;;;;;;;1.17;1.17;;;;;;;;;;5017416;28;20030;-81
2021/06/24 13:56:13;;;;;;;2.80;1.23;;;;;;;;;;5019774;28;20026;-83
2021/06/24 13:58:39;;;;;;;3.15;1.05;;;;;;;;;;5001212;28;20069;-79
2021/06/24 14:01:05;;;;;;;2.80;1.20;;;;;;;;;;5018070;28;20026;-82
2021/06/24 14:03:34;;;;;;;1.00;1.00;;;;;;;;;;5022495;28;20110;-83
2021/06/24 14:06:00;;;;;;;0.98;0.98;;;;;;;;;;5021366;28;20022;-79
2021/06/24 14:08:26;;;;;;;2.15;1.13;;;;;;;;;;5020393;28;20044;-82
2021/06/24 14:10:52;;;;;;;1.60;1.50;;;;;;;;;;5019100;28;20034;-81
2021/06/24 14:13:18;;;;;;;1.27;1.20;;;;;;;;;;4997150;28;20030;-80
2021/06/24 14:15:44;;;;;;;0.98;0.98;;;;;;;;;;5019582;28;20030;-80
2021/06/24 14:18:11;;;;;;;1.52;1.17;;;;;;;;;;4999190;28;20033;-82
2021/06/24 14:20:37;;;;;;;0.93;0.93;;;;;;;;;;5012129;28;20033;-81
2021/06/24 14:23:04;;;;;;;1.63;1.00;;;;;;;;;;5008606;28;20367;-81
2021/06/24 14:25:30;;;;;;;2.00;1.30;;;;;;;;;;5026330;28;20021;-79
2021/06/24 14:27:56;;;;;;;2.47;1.08;;;;;;;;;;5016636;28;20557;-80
2021/06/24 14:30:22;;;;;;;1.02;1.00;;;;;;;;;;5036563;28;20032;-78
2021/06/24 14:32:48;;;;;;;1.30;1.17;;;;;;;;;;5004555;28;20434;-78
2021/06/24 14:35:14;;;;;;;1.33;1.23;;;;;;;;;;5021441;28;20026;-80
2021/06/24 14:37:40;;;;;;;1.48;1.10;;;;;;;;;;5018802;28;20332;-80
2021/06/24 14:40:07;;;;;;;1.33;1.20;;;;;;;;;;5018608;28;20470;-80
2021/06/24 14:42:33;;;;;;;1.58;1.15;;;;;;;;;;5019244;28;20022;-80
2021/06/24 14:44:59;;;;;;;1.20;1.08;;;;;;;;;;5019237;28;20038;-83
2021/06/24 14:47:25;;;;;;;1.40;1.25;;;;;;;;;;5000630;28;20018;-81
2021/06/24 14:49:52;;;;;;;1.42;1.23;;;;;;;;;;5016779;28;20171;-79
2021/06/24 14:52:18;;;;;;;2.45;1.48;;;;;;;;;;5018930;28;20051;-80
2021/06/24 14:54:44;;;;;;;1.25;1.17;;;;;;;;;;5000911;28;20076;-81
2021/06/24 14:57:10;;;;;;;1.13;1.10;;;;;;;;;;5022364;28;20018;-81
2021/06/24 14:59:38;;;;;;;1.70;1.10;;;;;;;;;;5019888;28;20026;-78
2021/06/24 15:02:04;;;;;;;1.02;1.00;;;;;;;;;;5019177;28;20048;-81
2021/06/24 15:04:30;;;;;;;1.40;1.13;;;;;;;;;;5001354;28;20029;-81
2021/06/24 15:06:56;;;;;;;0.98;0.93;;;;;;;;;;5003214;28;20037;-77
2021/06/24 15:09:22;;;;;;;0.82;0.82;;;;;;;;;;5019171;28;20046;-80
2021/06/24 15:11:49;;;;;;;0.90;0.90;;;;;;;;;;5001091;28;20406;-81
2021/06/24 15:14:15;;;;;;;0.82;0.82;;;;;;;;;;5008618;28;20029;-78
2021/06/24 15:16:44;;;;;;;0.80;0.80;;;;;;;;;;5032746;28;20084;-79
2021/06/24 15:19:10;;;;;;;1.27;0.90;;;;;;;;;;5038205;28;20018;-79
2021/06/24 15:21:36;;;;;;;1.08;1.08;;;;;;;;;;5022348;28;20045;-80
2021/06/24 15:24:02;;;;;;;1.10;1.10;;;;;;;;;;5018485;28;20026;-80
2021/06/24 15:26:28;;;;;;;1.27;1.15;;;;;;;;;;5001775;28;20415;-78
2021/06/24 15:28:54;;;;;;;2.85;1.13;;;;;;;;;;5020662;28;20034;-78
2021/06/24 15:31:20;;;;;;;2.58;1.20;;;;;;;;;;5021134;28;20037;-79
2021/06/24 15:33:47;;;;;;;2.00;1.20;;;;;;;;;;5006851;28;20045;-80
2021/06/24 15:36:13;;;;;;;1.30;1.15;;;;;;;;;;5009540;28;20021;-79
2021/06/24 15:38:39;;;;;;;1.10;1.00;;;;;;;;;;5029475;28;20470;-81
2021/06/24 15:41:05;;;;;;;5.68;3.25;;;;;;;;;;5011806;28;20033;-80
2021/06/24 15:43:35;;;;;;;6.55;3.20;;;;;;;;;;5035145;28;20049;-80
2021/06/24 15:46:01;;;;;;;2.03;1.52;;;;;;;;;;5030956;28;20022;-80
2021/06/24 15:48:28;;;;;;;5.50;1.67;;;;;;;;;;5001141;28;20091;-79
2021/06/24 15:50:54;;;;;;;4.05;1.60;;;;;;;;;;5021355;28;20434;-79
2021/06/24 15:53:20;;;;;;;11.90;2.35;;;;;;;;;;5016976;28;20113;-79
2021/06/24 15:55:51;;;;;;;2.10;1.45;;;;;;;;;;5016760;28;20239;-80
2021/06/24 15:58:18;;;;;;;3.20;1.50;;;;;;;;;;5017074;28;20558;-78
2021/06/24 16:00:44;;;;;;;6.53;2.03;;;;;;;;;;5001714;28;20053;-80
2021/06/24 16:03:11;;;;;;;3.17;1.63;;;;;;;;;;5016526;28;20017;-78